createdAt,value
2023-11-07T00:01:06.738Z,81.16
2023-11-07T00:04:01.461Z,81.29
2023-11-07T00:06:33.728Z,81.26
2023-11-07T00:09:06.202Z,81.30
2023-11-07T00:11:39.667Z,81.11
2023-11-07T00:14:11.923Z,81.26
2023-11-07T00:16:43.997Z,81.18
2023-11-07T00:19:14.456Z,81.53
2023-11-07T00:21:46.620Z,81.40
2023-11-07T00:24:19.260Z,81.76
2023-11-07T00:26:52.580Z,81.60
2023-11-07T00:29:26.649Z,81.48
2023-11-07T00:32:01.430Z,81.51
2023-11-07T00:34:35.685Z,81.52
2023-11-07T00:37:08.487Z,81.64
2023-11-07T00:39:40.895Z,81.76
2023-11-07T00:42:14.190Z,81.58
2023-11-07T00:44:47.563Z,81.61
2023-11-07T00:47:22.515Z,81.68
2023-11-07T00:49:57.438Z,81.79
2023-11-07T00:52:31.103Z,81.75
2023-11-07T00:55:06.272Z,81.58
2023-11-07T00:57:40.995Z,81.88
2023-11-07T01:00:16.474Z,81.60
2023-11-07T01:02:57.032Z,81.60
2023-11-07T01:05:32.075Z,81.79
2023-11-07T01:08:07.019Z,81.61
2023-11-07T01:10:40.481Z,81.76
2023-11-07T01:13:13.782Z,81.75
2023-11-07T01:15:47.951Z,81.44
2023-11-07T01:18:31.554Z,81.76
2023-11-07T01:21:08.925Z,81.74
2023-11-07T01:23:45.586Z,81.77
2023-11-07T01:26:21.375Z,81.66
2023-11-07T01:28:58.044Z,81.74
2023-11-07T01:31:33.313Z,81.65
2023-11-07T01:34:06.911Z,81.63
2023-11-07T01:36:41.619Z,81.67
2023-11-07T01:39:23.932Z,81.37
2023-11-07T01:41:59.980Z,81.66
2023-11-07T01:44:43.928Z,81.60
2023-11-07T01:47:24.608Z,81.84
2023-11-07T01:50:16.053Z,81.71
2023-11-07T01:52:48.910Z,81.57
2023-11-07T01:55:26.273Z,81.60
2023-11-07T01:58:11.436Z,81.55
2023-11-07T02:00:57.988Z,81.39
2023-11-07T02:03:37.637Z,81.28
2023-11-07T02:06:11.933Z,81.37
2023-11-07T02:08:44.813Z,81.36
2023-11-07T02:11:25.675Z,81.09
2023-11-07T02:13:58.551Z,81.35
2023-11-07T02:16:31.751Z,81.46
2023-11-07T02:19:03.984Z,81.44
2023-11-07T02:21:37.724Z,81.25
2023-11-07T02:24:12.082Z,81.38
2023-11-07T02:26:44.934Z,81.24
2023-11-07T02:29:16.897Z,81.45
2023-11-07T02:31:48.670Z,81.42
2023-11-07T02:34:21.117Z,81.52
2023-11-07T02:36:53.419Z,81.35
2023-11-07T02:39:25.624Z,81.46
2023-11-07T02:41:57.713Z,81.60
2023-11-07T02:44:29.799Z,81.85
2023-11-07T02:47:01.877Z,81.65
2023-11-07T02:49:33.941Z,81.74
2023-11-07T02:52:06.457Z,81.11
2023-11-07T02:54:38.752Z,81.73
2023-11-07T02:57:11.454Z,81.94
2023-11-07T02:59:46.335Z,81.95
2023-11-07T03:02:19.021Z,81.86
2023-11-07T03:04:50.940Z,81.95
2023-11-07T03:07:23.623Z,81.78
2023-11-07T03:09:55.583Z,81.48
2023-11-07T03:12:27.464Z,81.66
2023-11-07T03:15:00.527Z,80.70
2023-11-07T03:17:32.716Z,81.18
2023-11-07T03:20:07.845Z,81.43
2023-11-07T03:22:41.929Z,81.51
2023-11-07T03:25:13.752Z,81.46
2023-11-07T03:27:45.616Z,81.48
2023-11-07T03:30:17.579Z,81.71
2023-11-07T03:32:47.963Z,81.70
2023-11-07T03:35:21.202Z,81.87
2023-11-07T03:37:53.270Z,80.99
2023-11-07T03:40:25.001Z,81.06
2023-11-07T03:42:56.925Z,81.45
2023-11-07T03:45:31.104Z,81.18
2023-11-07T03:48:03.000Z,81.63
2023-11-07T03:50:35.227Z,81.75
2023-11-07T03:53:07.551Z,81.79
2023-11-07T03:55:39.361Z,81.68
2023-11-07T03:58:11.269Z,81.64
2023-11-07T04:00:44.658Z,81.68
2023-11-07T04:03:16.895Z,81.55
2023-11-07T04:05:49.060Z,81.60
2023-11-07T04:08:20.926Z,81.51
2023-11-07T04:10:52.860Z,81.48
2023-11-07T04:13:24.761Z,81.56
2023-11-07T04:15:58.110Z,81.48
2023-11-07T04:18:30.138Z,81.57
2023-11-07T04:21:00.607Z,81.72
2023-11-07T04:23:32.559Z,81.65
2023-11-07T04:26:04.554Z,81.87
2023-11-07T04:28:35.229Z,81.75
2023-11-07T04:31:09.961Z,81.74
2023-11-07T04:33:43.156Z,81.71
2023-11-07T04:36:17.787Z,81.57
2023-11-07T04:38:49.763Z,81.73
2023-11-07T04:41:20.063Z,81.69
2023-11-07T04:43:52.051Z,81.87
2023-11-07T04:46:23.841Z,81.69
2023-11-07T04:48:56.597Z,81.29
2023-11-07T04:51:28.637Z,81.70
2023-11-07T04:54:00.453Z,81.63
2023-11-07T04:56:32.287Z,81.70
2023-11-07T04:59:04.241Z,81.80
2023-11-07T05:01:35.950Z,81.89
2023-11-07T05:04:08.851Z,81.87
2023-11-07T05:06:40.725Z,81.86
2023-11-07T05:09:13.902Z,81.91
2023-11-07T05:11:45.876Z,82.03
2023-11-07T05:14:20.459Z,82.34
2023-11-07T05:16:57.195Z,81.70
2023-11-07T05:19:29.047Z,81.58
2023-11-07T05:22:01.210Z,81.59
2023-11-07T05:24:33.005Z,81.82
2023-11-07T05:27:05.024Z,81.91
2023-11-07T05:29:35.791Z,81.93
2023-11-07T05:32:09.296Z,81.67
2023-11-07T05:34:41.420Z,81.69
2023-11-07T05:37:13.488Z,81.75
2023-11-07T05:39:45.569Z,81.70
2023-11-07T05:42:17.432Z,81.78
2023-11-07T05:44:49.164Z,81.68
2023-11-07T05:47:21.183Z,81.56
2023-11-07T05:49:52.565Z,81.64
2023-11-07T05:52:24.893Z,81.48
2023-11-07T05:54:56.665Z,81.55
2023-11-07T05:57:28.436Z,81.58
2023-11-07T06:00:01.535Z,81.66
2023-11-07T06:02:44.428Z,81.84
2023-11-07T06:05:16.458Z,81.74
2023-11-07T06:07:49.875Z,81.67
2023-11-07T06:10:21.797Z,81.36
2023-11-07T06:12:52.145Z,81.47
2023-11-07T06:15:31.146Z,81.60
2023-11-07T06:18:04.768Z,81.45
2023-11-07T06:20:36.693Z,81.72
2023-11-07T06:23:07.079Z,81.63
2023-11-07T06:25:38.828Z,81.54
2023-11-07T06:28:10.879Z,81.65
2023-11-07T06:30:42.966Z,81.51
2023-11-07T06:33:13.732Z,81.61
2023-11-07T06:35:45.973Z,81.29
2023-11-07T06:38:18.737Z,81.30
2023-11-07T06:40:50.630Z,81.07
2023-11-07T06:43:23.469Z,81.28
2023-11-07T06:45:55.212Z,81.33
2023-11-07T06:48:27.395Z,81.31
2023-11-07T06:50:59.546Z,81.52
2023-11-07T06:53:31.415Z,81.12
2023-11-07T06:56:03.119Z,81.20
2023-11-07T06:58:34.939Z,81.22
2023-11-07T07:01:07.526Z,81.16
2023-11-07T07:03:40.304Z,81.05
2023-11-07T07:06:13.707Z,81.09
2023-11-07T07:08:45.556Z,81.40
2023-11-07T07:11:17.275Z,81.29
2023-11-07T07:13:49.170Z,81.57
2023-11-07T07:16:24.237Z,81.14
2023-11-07T07:18:56.119Z,81.50
2023-11-07T07:21:28.570Z,80.58
2023-11-07T07:24:00.283Z,81.20
2023-11-07T07:26:32.169Z,81.22
2023-11-07T07:29:05.025Z,80.69
2023-11-07T07:31:38.635Z,81.28
2023-11-07T07:34:10.623Z,81.13
2023-11-07T07:36:45.605Z,80.26
2023-11-07T07:39:31.475Z,80.31
2023-11-07T07:42:12.655Z,80.32
2023-11-07T07:44:44.390Z,80.53
2023-11-07T07:47:16.829Z,80.41
2023-11-07T07:49:49.198Z,80.10
2023-11-07T07:52:33.292Z,80.17
2023-11-07T07:55:12.706Z,79.01
2023-11-07T07:57:49.245Z,79.67
2023-11-07T08:00:25.742Z,79.39
2023-11-07T08:02:57.809Z,78.34
2023-11-07T08:05:32.725Z,78.53
2023-11-07T08:08:04.471Z,78.07
2023-11-07T08:10:36.800Z,79.12
2023-11-07T08:13:11.659Z,79.56
2023-11-07T08:15:44.306Z,78.85
2023-11-07T08:18:17.398Z,79.03
2023-11-07T08:20:51.762Z,79.16
2023-11-07T08:23:23.810Z,79.31
2023-11-07T08:25:56.135Z,79.21
2023-11-07T08:28:30.019Z,78.55
2023-11-07T08:31:02.038Z,78.71
2023-11-07T08:33:32.498Z,78.76
2023-11-07T08:36:04.453Z,79.35
2023-11-07T08:38:36.584Z,79.83
2023-11-07T08:41:08.696Z,80.22
2023-11-07T08:43:40.872Z,80.68
2023-11-07T08:46:12.921Z,80.72
2023-11-07T08:48:46.019Z,81.09
2023-11-07T08:51:18.026Z,81.05
2023-11-07T08:53:50.637Z,81.11
2023-11-07T08:56:25.913Z,80.74
2023-11-07T08:58:57.660Z,80.33
2023-11-07T09:01:30.628Z,80.19
2023-11-07T09:04:18.149Z,80.75
2023-11-07T09:06:50.297Z,80.96
2023-11-07T09:09:25.177Z,80.86
2023-11-07T09:11:59.463Z,80.84
2023-11-07T09:14:31.646Z,80.77
2023-11-07T09:17:03.529Z,80.82
2023-11-07T09:19:35.355Z,80.93
2023-11-07T09:22:08.691Z,80.82
2023-11-07T09:24:41.042Z,81.19
2023-11-07T09:27:11.557Z,81.06
2023-11-07T09:29:43.579Z,80.90
2023-11-07T09:32:15.644Z,80.26
2023-11-07T09:34:47.580Z,80.38
2023-11-07T09:37:19.589Z,80.52
2023-11-07T09:39:49.840Z,80.82
2023-11-07T09:42:21.683Z,81.27
2023-11-07T09:44:53.697Z,80.85
2023-11-07T09:47:25.161Z,80.38
2023-11-07T09:49:57.135Z,80.58
2023-11-07T09:52:28.022Z,80.72
2023-11-07T09:55:03.959Z,81.06
2023-11-07T09:57:37.808Z,81.11
2023-11-07T10:00:12.729Z,81.37
2023-11-07T10:02:46.273Z,81.19
2023-11-07T10:05:20.534Z,81.01
2023-11-07T10:07:53.726Z,80.93
2023-11-07T10:10:26.021Z,81.17
2023-11-07T10:13:12.045Z,80.94
2023-11-07T10:15:44.110Z,80.77
2023-11-07T10:18:14.606Z,80.94
2023-11-07T10:20:56.501Z,80.71
2023-11-07T10:23:28.382Z,80.79
2023-11-07T10:26:14.658Z,80.77
2023-11-07T10:28:46.581Z,80.72
2023-11-07T10:31:24.625Z,80.79
2023-11-07T10:34:15.405Z,80.84
2023-11-07T10:36:46.102Z,81.07
2023-11-07T10:39:19.266Z,81.13
2023-11-07T10:41:51.098Z,80.62
2023-11-07T10:44:30.493Z,80.71
2023-11-07T10:47:04.436Z,80.75
2023-11-07T10:49:38.326Z,80.16
2023-11-07T10:52:11.349Z,80.74
2023-11-07T10:54:43.215Z,80.49
2023-11-07T10:57:22.769Z,80.19
2023-11-07T11:00:06.905Z,80.29
2023-11-07T11:02:42.469Z,80.27
2023-11-07T11:05:17.792Z,80.14
2023-11-07T11:07:54.076Z,79.84
2023-11-07T11:10:29.772Z,80.18
2023-11-07T11:13:03.409Z,80.08
2023-11-07T11:15:36.577Z,79.79
2023-11-07T11:18:12.494Z,79.77
2023-11-07T11:20:54.755Z,79.99
2023-11-07T11:23:37.359Z,79.22
2023-11-07T11:26:22.576Z,79.23
2023-11-07T11:28:54.410Z,78.42
2023-11-07T11:31:27.620Z,77.78
2023-11-07T11:34:27.657Z,78.27
2023-11-07T11:37:03.332Z,77.74
2023-11-07T11:39:50.605Z,77.43
2023-11-07T11:42:22.507Z,76.79
2023-11-07T11:45:40.673Z,76.73
2023-11-07T11:48:19.584Z,76.54
2023-11-07T11:51:28.568Z,76.13
2023-11-07T11:54:01.324Z,76.12
2023-11-07T11:56:35.685Z,75.82
2023-11-07T11:59:12.700Z,76.02
2023-11-07T12:01:55.791Z,75.71
2023-11-07T12:04:35.295Z,75.19
2023-11-07T12:07:24.137Z,75.62
2023-11-07T12:09:59.209Z,75.16
2023-11-07T12:12:31.797Z,74.89
2023-11-07T12:15:04.949Z,75.03
2023-11-07T12:17:48.610Z,75.05
2023-11-07T12:20:21.575Z,74.80
2023-11-07T12:22:53.790Z,74.89
2023-11-07T12:25:26.494Z,74.59
2023-11-07T12:28:07.797Z,74.80
2023-11-07T12:30:40.890Z,74.13
2023-11-07T12:33:13.088Z,73.96
2023-11-07T12:35:50.464Z,74.03
2023-11-07T12:38:23.206Z,73.31
2023-11-07T12:40:55.869Z,74.12
2023-11-07T12:43:44.076Z,75.02
2023-11-07T12:46:18.627Z,74.08
2023-11-07T12:48:54.685Z,73.71
2023-11-07T12:51:26.774Z,73.66
2023-11-07T12:53:57.210Z,73.44
2023-11-07T12:56:29.849Z,73.81
2023-11-07T12:59:14.837Z,72.07
2023-11-07T13:01:49.137Z,73.12
2023-11-07T13:04:22.117Z,72.34
2023-11-07T13:06:58.502Z,72.86
2023-11-07T13:09:32.770Z,73.23
2023-11-07T13:12:13.243Z,72.42
2023-11-07T13:14:46.206Z,73.42
2023-11-07T13:17:18.090Z,73.15
2023-11-07T13:19:51.996Z,72.51
2023-11-07T13:22:24.885Z,72.48
2023-11-07T13:24:57.033Z,72.69
2023-11-07T13:27:28.955Z,73.20
2023-11-07T13:29:59.255Z,73.80
2023-11-07T13:32:31.762Z,74.07
2023-11-07T13:35:04.719Z,75.33
2023-11-07T13:37:37.539Z,75.32
2023-11-07T13:40:11.708Z,75.50
2023-11-07T13:42:44.544Z,76.03
2023-11-07T13:45:16.770Z,76.67
2023-11-07T13:47:48.787Z,76.92
2023-11-07T13:50:20.889Z,76.69
2023-11-07T13:52:57.808Z,76.61
2023-11-07T13:55:30.317Z,76.44
2023-11-07T13:58:03.686Z,76.79
2023-11-07T14:00:35.919Z,77.10
2023-11-07T14:03:08.791Z,77.40
2023-11-07T14:05:41.368Z,76.87
2023-11-07T14:08:13.216Z,77.11
2023-11-07T14:10:46.397Z,76.73
2023-11-07T14:13:19.891Z,77.28
2023-11-07T14:15:53.428Z,77.52
2023-11-07T14:18:27.937Z,77.76
2023-11-07T14:21:03.865Z,78.05
2023-11-07T14:23:36.857Z,77.95
2023-11-07T14:26:10.376Z,78.11
2023-11-07T14:31:21.218Z,78.09
2023-11-07T14:33:53.984Z,78.22
2023-11-07T14:36:25.926Z,77.70
2023-11-07T14:38:58.688Z,77.93
2023-11-07T14:41:30.665Z,77.87
2023-11-07T14:44:00.856Z,78.30
2023-11-07T14:46:36.449Z,78.16
2023-11-07T14:49:09.287Z,77.56
2023-11-07T14:51:41.205Z,77.06
2023-11-07T14:54:15.303Z,76.91
2023-11-07T14:56:57.814Z,77.23
2023-11-07T14:59:35.967Z,77.31
2023-11-07T15:02:14.761Z,77.32
2023-11-07T15:04:54.725Z,77.64
2023-11-07T15:07:26.553Z,77.68
2023-11-07T15:09:58.600Z,77.78
2023-11-07T15:12:30.443Z,76.78
2023-11-07T15:15:02.363Z,75.91
2023-11-07T15:17:32.666Z,74.42
2023-11-07T15:20:04.985Z,74.50
2023-11-07T15:22:36.764Z,75.12
2023-11-07T15:25:13.153Z,75.91
2023-11-07T15:27:46.460Z,76.58
2023-11-07T15:30:18.847Z,77.05
2023-11-07T15:32:50.910Z,77.65
2023-11-07T15:35:21.112Z,77.52
2023-11-07T15:37:52.793Z,77.24
2023-11-07T15:40:24.575Z,77.32
2023-11-07T15:42:57.424Z,77.76
2023-11-07T15:45:32.497Z,77.62
2023-11-07T15:48:09.254Z,77.94
2023-11-07T15:50:42.751Z,78.04
2023-11-07T15:53:14.887Z,78.15
2023-11-07T15:55:46.755Z,78.18
2023-11-07T15:58:18.519Z,78.34
2023-11-07T16:00:51.226Z,78.42
2023-11-07T16:03:23.128Z,78.80
2023-11-07T16:05:53.705Z,78.79
2023-11-07T16:08:27.029Z,78.86
2023-11-07T16:11:00.038Z,79.10
2023-11-07T16:13:31.813Z,79.55
2023-11-07T16:16:05.510Z,79.73
2023-11-07T16:18:37.377Z,79.81
2023-11-07T16:21:09.656Z,79.86
2023-11-07T16:23:44.053Z,80.18
2023-11-07T16:26:16.522Z,80.10
2023-11-07T16:28:48.353Z,80.30
2023-11-07T16:31:20.095Z,80.49
2023-11-07T16:33:52.099Z,80.26
2023-11-07T16:36:25.956Z,80.38
2023-11-07T16:38:58.463Z,80.07
2023-11-07T16:41:32.454Z,80.22
2023-11-07T16:44:04.255Z,80.28
2023-11-07T16:46:37.555Z,80.56
2023-11-07T16:49:09.699Z,80.43
2023-11-07T16:51:41.598Z,80.53
2023-11-07T16:54:13.419Z,80.61
2023-11-07T16:56:45.123Z,80.51
2023-11-07T16:59:18.146Z,80.57
2023-11-07T17:01:49.811Z,80.65
2023-11-07T17:04:21.694Z,80.73
2023-11-07T17:06:54.704Z,80.94
2023-11-07T17:09:26.659Z,80.84
2023-11-07T17:11:59.817Z,80.44
2023-11-07T17:14:31.671Z,80.34
2023-11-07T17:17:04.321Z,80.04
2023-11-07T17:19:36.377Z,80.11
2023-11-07T17:22:06.714Z,80.23
2023-11-07T17:24:39.314Z,80.36
2023-11-07T17:27:11.224Z,80.75
2023-11-07T17:29:43.054Z,80.76
2023-11-07T17:32:15.426Z,80.82
2023-11-07T17:34:47.392Z,80.58
2023-11-07T17:37:19.209Z,80.66
2023-11-07T17:39:50.996Z,80.66
2023-11-07T17:42:22.862Z,80.79
2023-11-07T17:44:54.641Z,81.05
2023-11-07T17:47:28.841Z,81.07
2023-11-07T17:50:01.057Z,81.21
2023-11-07T17:52:33.101Z,81.22
2023-11-07T17:55:05.271Z,81.45
2023-11-07T17:57:37.285Z,81.56
2023-11-07T18:00:08.431Z,81.61
2023-11-07T18:02:46.446Z,81.60
2023-11-07T18:05:18.456Z,81.50
2023-11-07T18:07:49.940Z,81.84
2023-11-07T18:10:22.810Z,81.89
2023-11-07T18:12:54.569Z,82.06
2023-11-07T18:15:26.360Z,82.17
2023-11-07T18:17:59.556Z,82.23
2023-11-07T18:20:31.450Z,82.05
2023-11-07T18:23:03.154Z,82.00
2023-11-07T18:25:34.889Z,81.95
2023-11-07T18:28:09.887Z,81.91
2023-11-07T18:30:44.556Z,81.93
2023-11-07T18:33:16.428Z,82.03
2023-11-07T18:35:48.196Z,82.31
2023-11-07T18:38:20.301Z,82.20
2023-11-07T18:40:53.307Z,82.17
2023-11-07T18:43:25.092Z,82.33
2023-11-07T18:45:58.416Z,82.31
2023-11-07T18:48:30.231Z,82.12
2023-11-07T18:51:02.485Z,82.06
2023-11-07T18:53:43.617Z,82.15
2023-11-07T18:56:17.885Z,82.32
2023-11-07T18:58:49.720Z,82.31
2023-11-07T19:01:23.170Z,82.17
2023-11-07T19:03:57.557Z,82.27
2023-11-07T19:06:29.846Z,82.65
2023-11-07T19:09:01.699Z,82.24
2023-11-07T19:11:34.686Z,82.31
2023-11-07T19:14:06.392Z,82.49
2023-11-07T19:16:38.713Z,82.41
2023-11-07T19:19:10.467Z,82.64
2023-11-07T19:21:42.330Z,82.78
2023-11-07T19:24:18.121Z,82.75
2023-11-07T19:26:50.515Z,82.69
2023-11-07T19:29:22.626Z,82.56
2023-11-07T19:31:55.364Z,82.60
2023-11-07T19:34:27.223Z,82.46
2023-11-07T19:36:59.734Z,82.48
2023-11-07T19:39:30.651Z,82.44
2023-11-07T19:42:05.206Z,82.43
2023-11-07T19:44:37.913Z,82.36
2023-11-07T19:47:09.957Z,82.77
2023-11-07T19:49:40.682Z,82.64
2023-11-07T19:52:11.263Z,82.73
2023-11-07T19:54:43.548Z,82.90
2023-11-07T19:57:16.126Z,82.80
2023-11-07T19:59:48.794Z,82.66
2023-11-07T20:02:23.869Z,82.81
2023-11-07T20:05:01.374Z,82.84
2023-11-07T20:07:43.677Z,82.96
2023-11-07T20:10:23.510Z,83.12
2023-11-07T20:12:55.309Z,82.86
2023-11-07T20:15:27.428Z,82.69
2023-11-07T20:17:57.699Z,82.62
2023-11-07T20:20:54.135Z,82.76
2023-11-07T20:23:30.758Z,82.67
2023-11-07T20:26:06.856Z,82.70
2023-11-07T20:28:39.580Z,82.52
2023-11-07T20:31:12.193Z,82.55
2023-11-07T20:33:49.508Z,82.53
2023-11-07T20:36:22.549Z,82.62
2023-11-07T20:39:00.411Z,82.39
2023-11-07T20:41:37.528Z,82.59
2023-11-07T20:44:09.760Z,82.76
2023-11-07T20:46:41.696Z,82.65
2023-11-07T20:49:14.166Z,82.58
2023-11-07T20:51:58.860Z,82.68
2023-11-07T20:54:31.490Z,82.62
2023-11-07T20:57:04.964Z,82.59
2023-11-07T20:59:41.019Z,82.45
2023-11-07T21:02:13.842Z,82.81
2023-11-07T21:04:50.212Z,82.61
2023-11-07T21:07:22.371Z,82.81
2023-11-07T21:09:52.999Z,82.73
2023-11-07T21:12:25.259Z,82.83
2023-11-07T21:14:58.170Z,82.90
2023-11-07T21:17:30.249Z,82.93
2023-11-07T21:20:02.694Z,82.89
2023-11-07T21:22:34.693Z,82.85
2023-11-07T21:25:07.600Z,82.77
2023-11-07T21:27:45.680Z,82.62
2023-11-07T21:30:18.732Z,82.62
2023-11-07T21:32:50.768Z,82.60
2023-11-07T21:35:23.585Z,82.58
2023-11-07T21:37:56.604Z,82.47
2023-11-07T21:40:28.977Z,82.55
2023-11-07T21:43:01.436Z,82.63
2023-11-07T21:45:33.566Z,82.35
2023-11-07T21:48:07.651Z,82.34
2023-11-07T21:50:40.118Z,82.36
2023-11-07T21:53:12.535Z,82.47
2023-11-07T21:55:44.509Z,82.37
2023-11-07T21:58:14.908Z,82.44
2023-11-07T22:00:46.909Z,82.41
2023-11-07T22:03:17.307Z,82.18
2023-11-07T22:05:49.434Z,82.39
2023-11-07T22:08:19.756Z,82.46
2023-11-07T22:10:52.232Z,82.31
2023-11-07T22:13:25.732Z,82.57
2023-11-07T22:15:57.990Z,82.43
2023-11-07T22:18:29.015Z,82.30
2023-11-07T22:21:01.723Z,82.37
2023-11-07T22:23:33.930Z,82.52
2023-11-07T22:26:06.048Z,82.50
2023-11-07T22:28:36.598Z,82.49
2023-11-07T22:31:08.528Z,82.54
2023-11-07T22:33:42.949Z,82.66
2023-11-07T22:36:14.893Z,82.71
2023-11-07T22:38:46.880Z,82.41
2023-11-07T22:41:17.637Z,82.57
2023-11-07T22:43:49.647Z,82.41
2023-11-07T22:46:22.050Z,82.32
2023-11-07T22:48:55.157Z,82.32
2023-11-07T22:51:27.902Z,82.04
2023-11-07T22:53:59.974Z,82.33
2023-11-07T22:56:31.949Z,82.19
2023-11-07T22:59:03.783Z,82.30
2023-11-07T23:01:35.564Z,82.46
2023-11-07T23:04:08.818Z,82.51
2023-11-07T23:06:41.303Z,82.41
2023-11-07T23:09:14.152Z,82.56
2023-11-07T23:11:46.582Z,82.30
2023-11-07T23:14:19.122Z,82.31
2023-11-07T23:16:52.480Z,82.23
2023-11-07T23:19:26.400Z,82.35
2023-11-07T23:21:58.319Z,82.53
2023-11-07T23:24:30.270Z,82.71
2023-11-07T23:27:02.369Z,82.61
2023-11-07T23:29:33.846Z,82.46
2023-11-07T23:32:07.790Z,82.44
2023-11-07T23:34:39.585Z,82.74
2023-11-07T23:37:14.446Z,82.66
2023-11-07T23:39:46.590Z,82.72
2023-11-07T23:42:20.194Z,82.06
2023-11-07T23:44:52.162Z,82.36
2023-11-07T23:47:24.049Z,82.43
2023-11-07T23:49:55.887Z,82.26
2023-11-07T23:52:27.616Z,82.01
2023-11-07T23:55:00.069Z,81.86
2023-11-07T23:57:32.104Z,81.69
